createdAt,value
2023-01-09T00:01:19.209Z,101295.63
2023-01-09T00:03:47.827Z,101304.69
2023-01-09T00:06:16.490Z,101299.00
2023-01-09T00:08:45.276Z,101302.91
2023-01-09T00:11:15.111Z,101307.16
2023-01-09T00:13:43.565Z,101305.56
2023-01-09T00:16:12.677Z,101308.03
2023-01-09T00:18:41.097Z,101309.66
2023-01-09T00:21:11.687Z,101310.00
2023-01-09T00:23:40.362Z,101313.56
2023-01-09T00:26:10.024Z,101311.09
2023-01-09T00:28:39.793Z,101307.88
2023-01-09T00:31:09.715Z,101305.03
2023-01-09T00:33:41.125Z,101309.28
2023-01-09T00:36:10.508Z,101314.47
2023-01-09T00:38:39.649Z,101302.03
2023-01-09T00:41:10.218Z,101306.09
2023-01-09T00:43:42.725Z,101299.34
2023-01-09T00:46:11.952Z,101304.16
2023-01-09T00:48:42.215Z,101300.94
2023-01-09T00:51:10.729Z,101301.50
2023-01-09T00:53:40.698Z,101305.22
2023-01-09T00:56:12.854Z,101305.38
2023-01-09T00:58:42.956Z,101292.94
2023-01-09T01:01:12.284Z,101290.81
2023-01-09T01:03:40.796Z,101295.78
2023-01-09T01:06:26.779Z,101295.09
2023-01-09T01:08:56.984Z,101298.28
2023-01-09T01:11:25.802Z,101292.25
2023-01-09T01:13:55.492Z,101295.44
2023-01-09T01:16:23.883Z,101295.44
2023-01-09T01:18:52.299Z,101300.75
2023-01-09T01:21:20.681Z,101308.25
2023-01-09T01:23:48.983Z,101312.13
2023-01-09T01:26:20.592Z,101307.88
2023-01-09T01:28:48.966Z,101307.88
2023-01-09T01:31:20.259Z,101312.69
2023-01-09T01:33:48.715Z,101314.47
2023-01-09T01:36:18.039Z,101313.22
2023-01-09T01:38:48.097Z,101301.84
2023-01-09T01:41:29.682Z,101306.47
2023-01-09T01:43:59.776Z,101308.25
2023-01-09T01:46:30.250Z,101316.41
2023-01-09T01:49:03.983Z,101318.75
2023-01-09T01:51:40.472Z,101318.00
2023-01-09T01:54:14.597Z,101323.88
2023-01-09T01:56:45.470Z,101315.69
2023-01-09T01:59:18.645Z,101325.31
2023-01-09T02:01:51.408Z,101322.44
2023-01-09T02:04:19.972Z,101321.22
2023-01-09T02:06:49.299Z,101323.00
2023-01-09T02:09:20.599Z,101325.13
2023-01-09T02:11:52.416Z,101328.13
2023-01-09T02:14:21.742Z,101324.22
2023-01-09T02:17:17.970Z,101311.78
2023-01-09T02:20:23.655Z,101313.75
2023-01-09T02:22:53.780Z,101327.44
2023-01-09T02:25:45.226Z,101328.50
2023-01-09T02:28:53.988Z,101314.63
2023-01-09T02:31:27.410Z,101329.38
2023-01-09T02:34:00.667Z,101330.59
2023-01-09T02:36:32.575Z,101330.56
2023-01-09T02:39:12.358Z,101331.97
2023-01-09T02:44:21.710Z,101334.81
2023-01-09T02:47:01.327Z,101333.75
2023-01-09T02:49:30.017Z,101340.19
2023-01-09T02:52:05.885Z,101330.19
2023-01-09T02:54:40.516Z,101335.50
2023-01-09T02:57:19.934Z,101341.19
2023-01-09T03:00:09.185Z,101347.41
2023-01-09T03:02:49.530Z,101350.00
2023-01-09T03:05:22.769Z,101358.09
2023-01-09T03:07:56.729Z,101357.53
2023-01-09T03:10:29.595Z,101352.13
2023-01-09T03:12:59.861Z,101347.81
2023-01-09T03:15:31.419Z,101361.06
2023-01-09T03:18:02.331Z,101363.91
2023-01-09T03:20:31.699Z,101361.88
2023-01-09T03:23:01.574Z,101356.22
2023-01-09T03:25:31.708Z,101359.00
2023-01-09T03:28:01.790Z,101363.78
2023-01-09T03:30:31.211Z,101370.72
2023-01-09T03:33:01.340Z,101363.75
2023-01-09T03:35:30.061Z,101371.78
2023-01-09T03:37:59.162Z,101374.78
2023-01-09T03:40:27.644Z,101380.72
2023-01-09T03:42:56.122Z,101377.38
2023-01-09T03:45:24.615Z,101373.50
2023-01-09T03:47:53.175Z,101380.59
2023-01-09T03:50:23.066Z,101375.94
2023-01-09T03:52:52.420Z,101379.19
2023-01-09T03:55:20.886Z,101373.06
2023-01-09T03:57:52.828Z,101377.47
2023-01-09T04:00:22.108Z,101383.44
2023-01-09T04:02:50.615Z,101383.19
2023-01-09T04:05:19.051Z,101382.16
2023-01-09T04:07:48.781Z,101390.31
2023-01-09T04:10:18.002Z,101389.50
2023-01-09T04:12:46.432Z,101392.84
2023-01-09T04:15:14.867Z,101386.75
2023-01-09T04:17:43.220Z,101386.00
2023-01-09T04:20:12.606Z,101383.50
2023-01-09T04:22:41.227Z,101385.09
2023-01-09T04:25:14.613Z,101394.00
2023-01-09T04:27:43.010Z,101391.28
2023-01-09T04:30:12.613Z,101406.53
2023-01-09T04:32:41.070Z,101404.19
2023-01-09T04:35:10.062Z,101401.75
2023-01-09T04:37:39.521Z,101411.13
2023-01-09T04:40:12.435Z,101405.69
2023-01-09T04:42:41.672Z,101396.13
2023-01-09T04:45:15.533Z,101390.69
2023-01-09T04:47:44.835Z,101396.00
2023-01-09T04:50:14.090Z,101405.59
2023-01-09T04:52:42.471Z,101405.03
2023-01-09T04:55:12.413Z,101411.91
2023-01-09T04:57:41.136Z,101413.56
2023-01-09T05:00:12.439Z,101417.06
2023-01-09T05:02:42.043Z,101418.09
2023-01-09T05:05:11.831Z,101415.88
2023-01-09T05:07:41.147Z,101415.72
2023-01-09T05:10:12.553Z,101412.88
2023-01-09T05:12:41.546Z,101416.50
2023-01-09T05:15:10.762Z,101410.22
2023-01-09T05:17:39.220Z,101421.34
2023-01-09T05:20:08.485Z,101421.34
2023-01-09T05:22:37.018Z,101425.22
2023-01-09T05:25:05.789Z,101427.69
2023-01-09T05:27:35.613Z,101426.03
2023-01-09T05:30:04.073Z,101427.41
2023-01-09T05:32:36.155Z,101429.25
2023-01-09T05:35:04.767Z,101432.97
2023-01-09T05:37:33.191Z,101438.25
2023-01-09T05:40:01.560Z,101439.53
2023-01-09T05:42:31.898Z,101432.28
2023-01-09T05:45:01.661Z,101441.09
2023-01-09T05:47:30.439Z,101444.13
2023-01-09T05:49:58.802Z,101445.88
2023-01-09T05:52:27.393Z,101444.69
2023-01-09T05:54:55.866Z,101447.16
2023-01-09T05:57:24.336Z,101448.88
2023-01-09T05:59:52.932Z,101446.25
2023-01-09T06:02:22.799Z,101433.84
2023-01-09T06:04:51.225Z,101461.09
2023-01-09T06:07:22.085Z,101462.44
2023-01-09T06:09:51.705Z,101454.72
2023-01-09T06:12:20.421Z,101458.38
2023-01-09T06:14:48.776Z,101459.59
2023-01-09T06:17:17.152Z,101467.38
2023-01-09T06:19:46.891Z,101466.63
2023-01-09T06:22:15.457Z,101468.56
2023-01-09T06:24:43.884Z,101474.63
2023-01-09T06:27:13.183Z,101469.47
2023-01-09T06:29:41.610Z,101467.31
2023-01-09T06:32:09.990Z,101479.34
2023-01-09T06:34:38.357Z,101477.09
2023-01-09T06:37:09.179Z,101475.00
2023-01-09T06:39:37.552Z,101471.72
2023-01-09T06:42:06.053Z,101480.19
2023-01-09T06:44:36.799Z,101484.50
2023-01-09T06:47:05.337Z,101475.66
2023-01-09T06:49:33.716Z,101481.03
2023-01-09T06:52:05.714Z,101491.06
2023-01-09T06:54:35.746Z,101488.50
2023-01-09T06:57:04.144Z,101501.81
2023-01-09T06:59:32.625Z,101501.69
2023-01-09T07:02:01.126Z,101494.06
2023-01-09T07:04:29.683Z,101503.59
2023-01-09T07:06:58.051Z,101501.06
2023-01-09T07:09:26.496Z,101501.56
2023-01-09T07:11:56.278Z,101513.72
2023-01-09T07:14:24.694Z,101515.88
2023-01-09T07:16:53.054Z,101509.88
2023-01-09T07:19:21.414Z,101509.28
2023-01-09T07:21:49.769Z,101504.41
2023-01-09T07:24:18.139Z,101504.47
2023-01-09T07:26:46.563Z,101515.88
2023-01-09T07:29:16.411Z,101510.53
2023-01-09T07:31:47.059Z,101502.69
2023-01-09T07:34:15.527Z,101514.38
2023-01-09T07:36:46.628Z,101507.34
2023-01-09T07:39:15.286Z,101513.19
2023-01-09T07:41:43.729Z,101517.75
2023-01-09T07:44:12.226Z,101516.25
2023-01-09T07:46:43.047Z,101524.28
2023-01-09T07:49:11.610Z,101515.47
2023-01-09T07:51:43.378Z,101523.72
2023-01-09T07:54:12.740Z,101517.53
2023-01-09T07:56:41.308Z,101520.88
2023-01-09T07:59:09.757Z,101524.34
2023-01-09T08:01:38.299Z,101518.63
2023-01-09T08:04:08.253Z,101523.19
2023-01-09T08:06:36.741Z,101519.09
2023-01-09T08:09:05.231Z,101524.34
2023-01-09T08:11:33.620Z,101530.47
2023-01-09T08:14:01.946Z,101528.56
2023-01-09T08:16:30.361Z,101525.09
2023-01-09T08:18:58.730Z,101518.75
2023-01-09T08:21:28.457Z,101526.03
2023-01-09T08:23:56.895Z,101531.13
2023-01-09T08:26:25.272Z,101526.44
2023-01-09T08:28:53.717Z,101528.56
2023-01-09T08:31:22.153Z,101520.91
2023-01-09T08:33:50.599Z,101526.03
2023-01-09T08:36:19.019Z,101528.88
2023-01-09T08:38:48.784Z,101528.34
2023-01-09T08:41:34.564Z,101529.00
2023-01-09T08:44:20.513Z,101523.03
2023-01-09T08:47:07.012Z,101523.16
2023-01-09T08:49:36.191Z,101521.72
2023-01-09T08:52:05.115Z,101534.94
2023-01-09T08:54:36.945Z,101527.56
2023-01-09T08:57:05.526Z,101525.72
2023-01-09T08:59:33.944Z,101530.50
2023-01-09T09:02:02.532Z,101532.88
2023-01-09T09:04:31.304Z,101523.00
2023-01-09T09:06:59.771Z,101516.25
2023-01-09T09:09:28.182Z,101511.53
2023-01-09T09:11:57.965Z,101523.09
2023-01-09T09:14:43.975Z,101527.03
2023-01-09T09:17:14.578Z,101506.91
2023-01-09T09:19:43.586Z,101520.09
2023-01-09T09:22:14.534Z,101519.53
2023-01-09T09:24:43.147Z,101507.31
2023-01-09T09:27:12.925Z,101509.66
2023-01-09T09:29:41.274Z,101507.97
2023-01-09T09:32:09.621Z,101510.16
2023-01-09T09:34:37.994Z,101503.72
2023-01-09T09:37:06.499Z,101530.28
2023-01-09T09:39:35.121Z,101519.50
2023-01-09T09:42:40.801Z,101527.97
2023-01-09T09:45:22.283Z,101520.47
2023-01-09T09:47:57.374Z,101524.41
2023-01-09T09:50:32.209Z,101529.06
2023-01-09T09:53:04.827Z,101525.22
2023-01-09T09:55:35.614Z,101516.19
2023-01-09T09:58:08.473Z,101522.69
2023-01-09T10:00:37.019Z,101523.09
2023-01-09T10:03:07.770Z,101521.53
2023-01-09T10:05:37.275Z,101526.19
2023-01-09T10:08:15.651Z,101524.16
2023-01-09T10:10:48.235Z,101525.75
2023-01-09T10:13:37.654Z,101517.88
2023-01-09T10:16:10.119Z,101533.13
2023-01-09T10:18:48.213Z,101532.84
2023-01-09T10:21:18.903Z,101529.50
2023-01-09T10:24:04.684Z,101518.19
2023-01-09T10:26:38.258Z,101533.09
2023-01-09T10:29:28.257Z,101541.09
2023-01-09T10:32:07.644Z,101540.25
2023-01-09T10:34:47.014Z,101548.91
2023-01-09T10:37:16.926Z,101551.09
2023-01-09T10:39:50.144Z,101540.38
2023-01-09T10:42:23.687Z,101545.69
2023-01-09T10:44:57.029Z,101547.63
2023-01-09T10:47:29.309Z,101550.31
2023-01-09T10:49:58.550Z,101543.13
2023-01-09T10:52:30.450Z,101537.81
2023-01-09T10:55:07.343Z,101541.25
2023-01-09T10:57:42.098Z,101549.25
2023-01-09T11:00:21.580Z,101539.25
2023-01-09T11:02:52.037Z,101544.34
2023-01-09T11:05:22.305Z,101545.22
2023-01-09T11:07:54.425Z,101551.72
2023-01-09T11:10:22.903Z,101556.31
2023-01-09T11:12:51.285Z,101560.41
2023-01-09T11:15:29.282Z,101553.78
2023-01-09T11:18:19.849Z,101551.34
2023-01-09T11:20:48.286Z,101547.88
2023-01-09T11:23:28.877Z,101544.22
2023-01-09T11:25:58.990Z,101542.91
2023-01-09T11:28:27.562Z,101546.19
2023-01-09T11:30:59.857Z,101544.97
2023-01-09T11:33:30.400Z,101537.28
2023-01-09T11:36:02.107Z,101544.41
2023-01-09T11:38:31.137Z,101546.53
2023-01-09T11:41:01.649Z,101550.94
2023-01-09T11:43:33.882Z,101549.59
2023-01-09T11:46:05.807Z,101548.84
2023-01-09T11:48:39.860Z,101538.75
2023-01-09T11:51:20.508Z,101534.41
2023-01-09T11:54:14.213Z,101537.66
2023-01-09T11:56:42.986Z,101550.75
2023-01-09T11:59:13.456Z,101543.72
2023-01-09T12:02:06.912Z,101541.31
2023-01-09T12:04:37.396Z,101538.25
2023-01-09T12:07:22.434Z,101538.31
2023-01-09T12:09:59.265Z,101552.75
2023-01-09T12:12:32.800Z,101542.44
2023-01-09T12:15:17.731Z,101557.50
2023-01-09T12:17:58.198Z,101551.03
2023-01-09T12:20:35.141Z,101558.56
2023-01-09T12:23:17.261Z,101552.31
2023-01-09T12:25:52.064Z,101550.78
2023-01-09T12:28:47.175Z,101547.56
2023-01-09T12:31:26.849Z,101541.81
2023-01-09T12:34:04.316Z,101550.06
2023-01-09T12:36:36.873Z,101552.25
2023-01-09T12:39:10.596Z,101543.47
2023-01-09T12:41:58.176Z,101551.22
2023-01-09T12:44:54.664Z,101552.13
2023-01-09T12:47:45.350Z,101555.41
2023-01-09T12:50:43.707Z,101561.28
2023-01-09T12:53:20.079Z,101561.09
2023-01-09T12:55:53.496Z,101554.84
2023-01-09T12:58:30.606Z,101561.75
2023-01-09T13:01:00.448Z,101553.91
2023-01-09T13:03:33.383Z,101550.94
2023-01-09T13:06:02.771Z,101565.34
2023-01-09T13:08:33.910Z,101564.03
2023-01-09T13:11:19.369Z,101580.41
2023-01-09T13:13:51.448Z,101578.44
2023-01-09T13:16:23.370Z,101580.81
2023-01-09T13:18:57.261Z,101580.72
2023-01-09T13:21:26.449Z,101583.00
2023-01-09T13:24:00.459Z,101584.69
2023-01-09T13:26:30.574Z,101581.81
2023-01-09T13:29:03.290Z,101594.31
2023-01-09T13:31:48.413Z,101597.22
2023-01-09T13:34:22.402Z,101591.03
2023-01-09T13:36:53.168Z,101592.75
2023-01-09T13:39:24.598Z,101593.25
2023-01-09T13:42:13.256Z,101591.25
2023-01-09T13:44:42.146Z,101596.41
2023-01-09T13:47:18.956Z,101600.19
2023-01-09T13:50:23.952Z,101594.13
2023-01-09T13:52:52.265Z,101596.50
2023-01-09T13:55:36.252Z,101595.22
2023-01-09T13:58:22.797Z,101593.81
2023-01-09T14:01:08.110Z,101594.22
2023-01-09T14:03:37.841Z,101599.06
2023-01-09T14:06:24.406Z,101598.78
2023-01-09T14:09:14.008Z,101596.09
2023-01-09T14:11:44.845Z,101597.19
2023-01-09T14:14:28.998Z,101594.03
2023-01-09T14:16:59.286Z,101596.19
2023-01-09T14:19:38.574Z,101597.47
2023-01-09T14:22:07.434Z,101591.53
2023-01-09T14:24:42.401Z,101597.97
2023-01-09T14:27:44.128Z,101603.94
2023-01-09T14:30:30.471Z,101596.50
2023-01-09T14:32:59.750Z,101587.44
2023-01-09T14:35:30.599Z,101607.06
2023-01-09T14:38:08.422Z,101594.84
2023-01-09T14:40:37.455Z,101587.91
2023-01-09T14:43:22.966Z,101595.88
2023-01-09T14:45:53.720Z,101569.34
2023-01-09T14:48:24.572Z,101589.94
2023-01-09T14:50:55.870Z,101594.09
2023-01-09T14:53:26.340Z,101596.09
2023-01-09T14:55:55.776Z,101582.97
2023-01-09T14:58:25.904Z,101594.41
2023-01-09T15:01:00.453Z,101607.50
2023-01-09T15:03:30.167Z,101583.97
2023-01-09T15:05:58.575Z,101603.63
2023-01-09T15:08:28.926Z,101617.03
2023-01-09T15:10:58.182Z,101608.72
2023-01-09T15:13:33.803Z,101600.47
2023-01-09T15:16:06.086Z,101582.41
2023-01-09T15:18:39.533Z,101606.41
2023-01-09T15:21:07.979Z,101607.81
2023-01-09T15:23:36.383Z,101604.72
2023-01-09T15:26:15.985Z,101595.03
2023-01-09T15:28:45.219Z,101588.97
2023-01-09T15:31:17.322Z,101586.25
2023-01-09T15:33:47.844Z,101594.44
2023-01-09T15:36:19.909Z,101601.88
2023-01-09T15:38:49.769Z,101611.38
2023-01-09T15:41:40.901Z,101619.31
2023-01-09T15:44:14.782Z,101612.84
2023-01-09T15:46:46.581Z,101594.72
2023-01-09T15:49:15.596Z,101594.72
2023-01-09T15:51:45.810Z,101603.84
2023-01-09T15:54:15.846Z,101593.44
2023-01-09T15:56:46.101Z,101607.31
2023-01-09T15:59:24.585Z,101604.84
2023-01-09T16:02:20.897Z,101605.81
2023-01-09T16:04:50.284Z,101602.25
2023-01-09T16:07:21.669Z,101621.16
2023-01-09T16:09:53.538Z,101620.19
2023-01-09T16:12:23.982Z,101626.94
2023-01-09T16:14:53.928Z,101629.53
2023-01-09T16:17:26.755Z,101626.75
2023-01-09T16:19:58.051Z,101625.16
2023-01-09T16:22:27.815Z,101620.22
2023-01-09T16:24:58.571Z,101618.41
2023-01-09T16:27:29.047Z,101627.53
2023-01-09T16:29:59.838Z,101634.06
2023-01-09T16:32:31.785Z,101629.25
2023-01-09T16:35:01.456Z,101640.94
2023-01-09T16:37:32.271Z,101633.09
2023-01-09T16:40:26.534Z,101638.25
2023-01-09T16:43:03.495Z,101636.03
2023-01-09T16:45:34.656Z,101643.09
2023-01-09T16:48:11.191Z,101643.41
2023-01-09T16:50:40.416Z,101635.34
2023-01-09T16:53:14.769Z,101613.25
2023-01-09T16:55:43.431Z,101628.63
2023-01-09T16:58:17.606Z,101627.94
2023-01-09T17:00:48.250Z,101627.66
2023-01-09T17:03:20.372Z,101623.38
2023-01-09T17:05:55.250Z,101598.38
2023-01-09T17:08:28.365Z,101613.84
2023-01-09T17:10:58.253Z,101610.28
2023-01-09T17:13:27.873Z,101603.53
2023-01-09T17:15:57.736Z,101602.03
2023-01-09T17:18:29.676Z,101602.84
2023-01-09T17:20:59.450Z,101614.44
2023-01-09T17:23:28.933Z,101615.81
2023-01-09T17:26:16.810Z,101625.22
2023-01-09T17:28:46.455Z,101626.19
2023-01-09T17:31:16.143Z,101624.53
2023-01-09T17:33:45.988Z,101629.09
2023-01-09T17:36:21.329Z,101633.47
2023-01-09T17:38:54.849Z,101637.97
2023-01-09T17:41:23.979Z,101636.44
2023-01-09T17:43:52.438Z,101625.53
2023-01-09T17:46:24.702Z,101621.50
2023-01-09T17:48:54.637Z,101634.75
2023-01-09T17:51:23.384Z,101644.84
2023-01-09T17:53:51.892Z,101637.91
2023-01-09T17:56:22.635Z,101632.59
2023-01-09T17:58:51.130Z,101615.72
2023-01-09T18:01:21.173Z,101627.22
2023-01-09T18:03:50.703Z,101622.00
2023-01-09T18:06:22.211Z,101634.97
2023-01-09T18:08:50.955Z,101647.78
2023-01-09T18:11:24.297Z,101650.34
2023-01-09T18:13:54.375Z,101654.41
2023-01-09T18:16:25.258Z,101652.25
2023-01-09T18:18:54.823Z,101636.53
2023-01-09T18:21:25.364Z,101635.56
2023-01-09T18:23:53.942Z,101630.53
2023-01-09T18:26:25.644Z,101644.91
2023-01-09T18:28:56.962Z,101645.56
2023-01-09T18:31:28.349Z,101650.47
2023-01-09T18:33:58.270Z,101639.56
2023-01-09T18:36:30.117Z,101638.88
2023-01-09T18:39:00.700Z,101627.69
2023-01-09T18:41:30.107Z,101648.00
2023-01-09T18:44:00.228Z,101641.84
2023-01-09T18:46:32.452Z,101640.81
2023-01-09T18:49:02.405Z,101651.31
2023-01-09T18:51:34.793Z,101648.00
2023-01-09T18:54:03.209Z,101643.44
2023-01-09T18:56:31.901Z,101642.03
2023-01-09T18:59:00.413Z,101630.69
2023-01-09T19:01:29.731Z,101645.00
2023-01-09T19:03:58.528Z,101642.38
2023-01-09T19:06:27.427Z,101643.28
2023-01-09T19:08:57.552Z,101642.88
2023-01-09T19:11:25.996Z,101647.69
2023-01-09T19:13:54.659Z,101654.81
2023-01-09T19:16:23.093Z,101643.69
2023-01-09T19:18:51.570Z,101642.03
2023-01-09T19:21:21.192Z,101633.13
2023-01-09T19:23:51.125Z,101642.53
2023-01-09T19:26:23.865Z,101652.28
2023-01-09T19:28:55.334Z,101646.09
2023-01-09T19:31:24.787Z,101647.50
2023-01-09T19:33:54.211Z,101641.38
2023-01-09T19:36:23.216Z,101632.88
2023-01-09T19:38:57.113Z,101650.78
2023-01-09T19:41:28.399Z,101644.38
2023-01-09T19:43:57.003Z,101648.78
2023-01-09T19:46:26.618Z,101633.66
2023-01-09T19:48:55.177Z,101643.91
2023-01-09T19:51:24.961Z,101645.41
2023-01-09T19:53:54.937Z,101655.84
2023-01-09T19:56:24.760Z,101643.28
2023-01-09T19:58:55.636Z,101639.22
2023-01-09T20:01:25.763Z,101632.78
2023-01-09T20:03:56.567Z,101643.75
2023-01-09T20:06:26.562Z,101650.00
2023-01-09T20:08:56.700Z,101639.91
2023-01-09T20:11:26.549Z,101640.75
2023-01-09T20:13:56.750Z,101633.78
2023-01-09T20:16:28.387Z,101642.53
2023-01-09T20:18:57.831Z,101639.91
2023-01-09T20:21:27.999Z,101634.34
2023-01-09T20:23:58.210Z,101639.09
2023-01-09T20:26:27.161Z,101629.00
2023-01-09T20:28:57.416Z,101643.94
2023-01-09T20:31:28.260Z,101630.56
2023-01-09T20:33:59.061Z,101638.56
2023-01-09T20:36:30.251Z,101635.78
2023-01-09T20:39:01.134Z,101647.75
2023-01-09T20:41:31.476Z,101654.63
2023-01-09T20:44:07.123Z,101650.66
2023-01-09T20:46:37.287Z,101658.06
2023-01-09T20:51:36.303Z,101665.84
2023-01-09T20:56:36.265Z,101665.63
2023-01-09T20:59:07.055Z,101668.13
2023-01-09T21:01:35.696Z,101666.53
2023-01-09T21:04:04.297Z,101660.69
2023-01-09T21:06:33.134Z,101663.41
2023-01-09T21:09:01.517Z,101657.72
2023-01-09T21:11:30.060Z,101652.34
2023-01-09T21:13:58.623Z,101639.09
2023-01-09T21:16:29.477Z,101644.72
2023-01-09T21:18:57.957Z,101646.66
2023-01-09T21:21:27.796Z,101648.56
2023-01-09T21:23:58.337Z,101639.00
2023-01-09T21:26:30.475Z,101646.72
2023-01-09T21:29:01.404Z,101662.94
2023-01-09T21:31:34.934Z,101662.53
2023-01-09T21:34:05.707Z,101679.03
2023-01-09T21:36:35.501Z,101666.13
2023-01-09T21:39:07.479Z,101673.13
2023-01-09T21:41:53.826Z,101662.75
2023-01-09T21:44:39.503Z,101671.81
2023-01-09T21:47:09.327Z,101667.16
2023-01-09T21:49:41.137Z,101675.31
2023-01-09T21:52:09.805Z,101681.53
2023-01-09T21:54:38.223Z,101679.88
2023-01-09T21:57:06.919Z,101700.50
2023-01-09T21:59:35.306Z,101693.34
2023-01-09T22:02:03.655Z,101695.69
2023-01-09T22:04:33.685Z,101695.94
2023-01-09T22:07:02.212Z,101698.66
2023-01-09T22:09:30.633Z,101704.44
2023-01-09T22:11:59.023Z,101699.38
2023-01-09T22:14:27.392Z,101705.84
2023-01-09T22:16:55.789Z,101692.53
2023-01-09T22:19:24.523Z,101693.56
2023-01-09T22:21:55.283Z,101689.34
2023-01-09T22:24:23.718Z,101686.66
2023-01-09T22:26:52.064Z,101686.72
2023-01-09T22:29:21.952Z,101685.13
2023-01-09T22:31:50.320Z,101678.06
2023-01-09T22:34:20.416Z,101674.50
2023-01-09T22:36:48.978Z,101679.09
2023-01-09T22:39:20.041Z,101686.19
2023-01-09T22:41:51.859Z,101683.84
2023-01-09T22:44:20.337Z,101679.69
2023-01-09T22:46:49.039Z,101663.56
2023-01-09T22:49:19.705Z,101674.09
2023-01-09T22:51:48.090Z,101660.06
2023-01-09T22:54:16.538Z,101674.09
2023-01-09T22:56:46.446Z,101673.28
2023-01-09T22:59:14.828Z,101670.94
2023-01-09T23:01:43.194Z,101665.16
2023-01-09T23:04:13.567Z,101672.91
2023-01-09T23:06:42.044Z,101684.53
2023-01-09T23:09:10.715Z,101681.91
2023-01-09T23:11:56.749Z,101687.97
2023-01-09T23:14:26.492Z,101674.28
2023-01-09T23:16:57.954Z,101659.78
2023-01-09T23:19:26.456Z,101671.63
2023-01-09T23:21:55.025Z,101666.31
2023-01-09T23:24:23.877Z,101678.97
2023-01-09T23:26:55.064Z,101677.41
2023-01-09T23:29:23.907Z,101669.13
2023-01-09T23:31:53.985Z,101664.91
2023-01-09T23:34:25.726Z,101659.72
2023-01-09T23:36:57.634Z,101657.63
2023-01-09T23:39:26.529Z,101679.03
2023-01-09T23:42:12.450Z,101657.28
2023-01-09T23:44:40.872Z,101660.63
2023-01-09T23:47:10.731Z,101654.03
2023-01-09T23:49:43.143Z,101660.19
2023-01-09T23:52:11.824Z,101653.75
2023-01-09T23:54:40.712Z,101654.63
2023-01-09T23:57:11.848Z,101669.13
2023-01-09T23:59:40.796Z,101669.28
